sensor_id;sensor_type;location;lat;lon;timestamp;pressure;altitude;pressure_sealevel;temperature;humidity
45323;BME280;31382;50.200;8.674;2023-02-02T00:03:36;100686.34;;;9.02;63.64
45323;BME280;31382;50.200;8.674;2023-02-02T00:08:38;100695.69;;;8.98;63.85
45323;BME280;31382;50.200;8.674;2023-02-02T00:13:39;100695.91;;;9.04;63.59
45323;BME280;31382;50.200;8.674;2023-02-02T00:18:41;100693.41;;;9.03;63.73
45323;BME280;31382;50.200;8.674;2023-02-02T00:23:42;100692.38;;;9.04;63.48
45323;BME280;31382;50.200;8.674;2023-02-02T00:28:43;100691.06;;;9.08;63.99
45323;BME280;31382;50.200;8.674;2023-02-02T00:33:46;100686.72;;;9.07;63.55
45323;BME280;31382;50.200;8.674;2023-02-02T00:38:49;100699.97;;;9.08;63.85
45323;BME280;31382;50.200;8.674;2023-02-02T00:43:50;100697.28;;;9.08;63.39
45323;BME280;31382;50.200;8.674;2023-02-02T00:49:12;100716.41;;;9.13;63.30
45323;BME280;31382;50.200;8.674;2023-02-02T00:54:13;100719.25;;;9.12;63.42
45323;BME280;31382;50.200;8.674;2023-02-02T00:59:14;100727.09;;;9.31;62.96
45323;BME280;31382;50.200;8.674;2023-02-02T01:04:16;100732.75;;;9.20;63.13
45323;BME280;31382;50.200;8.674;2023-02-02T01:09:17;100738.59;;;9.24;63.13
45323;BME280;31382;50.200;8.674;2023-02-02T01:14:18;100741.53;;;9.30;62.93
45323;BME280;31382;50.200;8.674;2023-02-02T01:19:20;100740.84;;;9.28;63.65
45323;BME280;31382;50.200;8.674;2023-02-02T01:24:21;100747.13;;;9.19;64.24
45323;BME280;31382;50.200;8.674;2023-02-02T01:29:22;100755.06;;;9.03;65.03
45323;BME280;31382;50.200;8.674;2023-02-02T01:34:24;100751.19;;;8.79;66.23
45323;BME280;31382;50.200;8.674;2023-02-02T01:39:25;100769.56;;;8.74;66.91
45323;BME280;31382;50.200;8.674;2023-02-02T01:50:27;100770.88;;;8.70;67.50
45323;BME280;31382;50.200;8.674;2023-02-02T01:55:31;100760.38;;;8.77;67.30
45323;BME280;31382;50.200;8.674;2023-02-02T02:00:33;100763.97;;;8.85;67.34
45323;BME280;31382;50.200;8.674;2023-02-02T02:05:56;100757.56;;;9.04;66.60
45323;BME280;31382;50.200;8.674;2023-02-02T02:10:58;100747.56;;;9.06;66.57
45323;BME280;31382;50.200;8.674;2023-02-02T02:16:08;100750.66;;;9.20;66.31
45323;BME280;31382;50.200;8.674;2023-02-02T02:21:42;100749.66;;;9.21;66.08
45323;BME280;31382;50.200;8.674;2023-02-02T02:33:02;100740.50;;;9.31;65.76
45323;BME280;31382;50.200;8.674;2023-02-02T02:38:10;100744.56;;;9.36;65.75
45323;BME280;31382;50.200;8.674;2023-02-02T02:43:22;100741.13;;;9.25;65.88
45323;BME280;31382;50.200;8.674;2023-02-02T02:48:27;100736.25;;;9.21;66.18
45323;BME280;31382;50.200;8.674;2023-02-02T02:53:29;100743.38;;;9.12;66.32
45323;BME280;31382;50.200;8.674;2023-02-02T02:58:33;100744.94;;;9.15;66.39
45323;BME280;31382;50.200;8.674;2023-02-02T03:03:44;100743.63;;;9.19;66.72
45323;BME280;31382;50.200;8.674;2023-02-02T03:08:53;100753.28;;;9.11;67.09
45323;BME280;31382;50.200;8.674;2023-02-02T03:13:55;100749.75;;;9.11;67.19
45323;BME280;31382;50.200;8.674;2023-02-02T03:18:56;100744.94;;;9.15;66.83
45323;BME280;31382;50.200;8.674;2023-02-02T03:23:58;100742.56;;;9.11;67.38
45323;BME280;31382;50.200;8.674;2023-02-02T03:29:00;100746.25;;;9.10;67.60
45323;BME280;31382;50.200;8.674;2023-02-02T03:34:01;100729.69;;;9.15;67.71
45323;BME280;31382;50.200;8.674;2023-02-02T03:39:03;100753.81;;;9.15;67.71
45323;BME280;31382;50.200;8.674;2023-02-02T03:44:04;100750.50;;;8.95;68.21
45323;BME280;31382;50.200;8.674;2023-02-02T03:49:06;100746.88;;;8.86;69.05
45323;BME280;31382;50.200;8.674;2023-02-02T03:54:07;100747.88;;;8.85;68.83
45323;BME280;31382;50.200;8.674;2023-02-02T03:59:08;100760.00;;;8.89;68.95
45323;BME280;31382;50.200;8.674;2023-02-02T04:04:09;100752.63;;;8.91;69.08
45323;BME280;31382;50.200;8.674;2023-02-02T04:09:11;100763.22;;;8.93;68.62
45323;BME280;31382;50.200;8.674;2023-02-02T04:14:12;100760.81;;;8.90;69.16
45323;BME280;31382;50.200;8.674;2023-02-02T04:19:14;100758.38;;;8.97;68.91
45323;BME280;31382;50.200;8.674;2023-02-02T04:24:15;100766.16;;;9.08;68.46
45323;BME280;31382;50.200;8.674;2023-02-02T04:29:17;100778.94;;;9.14;68.01
45323;BME280;31382;50.200;8.674;2023-02-02T04:34:18;100769.44;;;9.20;67.72
45323;BME280;31382;50.200;8.674;2023-02-02T04:39:19;100775.03;;;9.26;67.66
45323;BME280;31382;50.200;8.674;2023-02-02T04:44:21;100784.09;;;9.33;67.25
45323;BME280;31382;50.200;8.674;2023-02-02T04:49:22;100786.34;;;9.38;67.26
45323;BME280;31382;50.200;8.674;2023-02-02T04:54:23;100791.66;;;9.56;66.75
45323;BME280;31382;50.200;8.674;2023-02-02T04:59:27;100783.66;;;9.64;66.86
45323;BME280;31382;50.200;8.674;2023-02-02T05:04:28;100790.75;;;9.47;67.28
45323;BME280;31382;50.200;8.674;2023-02-02T05:09:30;100788.00;;;9.65;66.72
45323;BME280;31382;50.200;8.674;2023-02-02T05:14:31;100798.16;;;9.53;67.07
45323;BME280;31382;50.200;8.674;2023-02-02T05:19:32;100793.31;;;9.57;66.70
45323;BME280;31382;50.200;8.674;2023-02-02T05:24:34;100798.69;;;9.57;66.97
45323;BME280;31382;50.200;8.674;2023-02-02T05:29:35;100802.06;;;9.59;66.71
45323;BME280;31382;50.200;8.674;2023-02-02T05:34:36;100799.19;;;9.52;66.97
45323;BME280;31382;50.200;8.674;2023-02-02T05:39:38;100809.56;;;9.56;67.02
45323;BME280;31382;50.200;8.674;2023-02-02T05:44:39;100808.97;;;9.62;66.70
45323;BME280;31382;50.200;8.674;2023-02-02T05:49:41;100820.00;;;9.59;66.77
45323;BME280;31382;50.200;8.674;2023-02-02T05:54:42;100815.56;;;9.49;67.01
45323;BME280;31382;50.200;8.674;2023-02-02T05:59:44;100809.28;;;9.59;66.55
45323;BME280;31382;50.200;8.674;2023-02-02T06:04:45;100819.03;;;9.60;66.53
45323;BME280;31382;50.200;8.674;2023-02-02T06:09:46;100801.66;;;9.46;66.94
45323;BME280;31382;50.200;8.674;2023-02-02T06:14:48;100809.00;;;9.44;66.79
45323;BME280;31382;50.200;8.674;2023-02-02T06:19:49;100808.09;;;9.35;67.42
45323;BME280;31382;50.200;8.674;2023-02-02T06:24:50;100809.63;;;9.38;67.29
45323;BME280;31382;50.200;8.674;2023-02-02T06:29:53;100832.47;;;9.42;67.26
45323;BME280;31382;50.200;8.674;2023-02-02T06:34:55;100851.41;;;9.40;67.67
45323;BME280;31382;50.200;8.674;2023-02-02T06:39:56;100838.44;;;9.36;67.92
45323;BME280;31382;50.200;8.674;2023-02-02T06:44:57;100846.25;;;9.47;67.40
45323;BME280;31382;50.200;8.674;2023-02-02T06:49:59;100850.16;;;9.52;67.43
45323;BME280;31382;50.200;8.674;2023-02-02T06:55:00;100831.00;;;9.47;67.59
45323;BME280;31382;50.200;8.674;2023-02-02T07:31:43;100839.78;;;9.58;67.81
45323;BME280;31382;50.200;8.674;2023-02-02T07:36:44;100840.13;;;9.55;67.74
45323;BME280;31382;50.200;8.674;2023-02-02T07:41:46;100858.41;;;9.59;67.74
45323;BME280;31382;50.200;8.674;2023-02-02T07:46:47;100858.47;;;9.67;67.39
45323;BME280;31382;50.200;8.674;2023-02-02T07:51:49;100850.69;;;9.56;67.57
45323;BME280;31382;50.200;8.674;2023-02-02T07:56:50;100859.88;;;9.53;67.83
45323;BME280;31382;50.200;8.674;2023-02-02T08:01:52;100859.69;;;9.47;68.07
45323;BME280;31382;50.200;8.674;2023-02-02T08:06:53;100852.50;;;9.56;67.86
45323;BME280;31382;50.200;8.674;2023-02-02T08:11:55;100868.13;;;9.52;68.07
45323;BME280;31382;50.200;8.674;2023-02-02T08:17:01;100876.22;;;9.60;67.85
45323;BME280;31382;50.200;8.674;2023-02-02T08:22:03;100887.31;;;9.65;67.46
45323;BME280;31382;50.200;8.674;2023-02-02T08:27:06;100891.91;;;9.73;67.49
45323;BME280;31382;50.200;8.674;2023-02-02T08:32:08;100892.91;;;9.72;67.61
45323;BME280;31382;50.200;8.674;2023-02-02T08:37:09;100890.53;;;9.69;67.67
45323;BME280;31382;50.200;8.674;2023-02-02T08:42:10;100904.69;;;9.79;67.42
45323;BME280;31382;50.200;8.674;2023-02-02T08:47:12;100905.22;;;9.83;67.19
45323;BME280;31382;50.200;8.674;2023-02-02T08:52:13;100902.53;;;9.83;67.01
45323;BME280;31382;50.200;8.674;2023-02-02T08:57:15;100913.75;;;9.78;67.34
45323;BME280;31382;50.200;8.674;2023-02-02T09:02:17;100914.97;;;9.84;67.14
45323;BME280;31382;50.200;8.674;2023-02-02T09:07:18;100916.69;;;9.93;66.88
45323;BME280;31382;50.200;8.674;2023-02-02T09:33:29;100932.22;;;9.99;65.99
45323;BME280;31382;50.200;8.674;2023-02-02T09:38:30;100949.06;;;10.09;65.79
45323;BME280;31382;50.200;8.674;2023-02-02T10:37:11;101004.41;;;10.28;65.43
45323;BME280;31382;50.200;8.674;2023-02-02T10:42:35;100996.22;;;10.30;65.21
45323;BME280;31382;50.200;8.674;2023-02-02T10:59:08;101010.94;;;10.44;65.17
45323;BME280;31382;50.200;8.674;2023-02-02T11:04:11;100995.97;;;10.41;65.25
45323;BME280;31382;50.200;8.674;2023-02-02T11:09:38;101000.63;;;10.31;65.11
45323;BME280;31382;50.200;8.674;2023-02-02T11:14:59;101012.34;;;10.30;65.04
45323;BME280;31382;50.200;8.674;2023-02-02T11:20:21;101006.03;;;10.39;65.36
45323;BME280;31382;50.200;8.674;2023-02-02T11:25:30;101006.09;;;10.47;65.43
45323;BME280;31382;50.200;8.674;2023-02-02T11:30:35;101008.19;;;10.36;65.39
45323;BME280;31382;50.200;8.674;2023-02-02T11:35:52;101015.56;;;10.34;65.78
45323;BME280;31382;50.200;8.674;2023-02-02T11:41:02;101013.34;;;10.29;65.98
45323;BME280;31382;50.200;8.674;2023-02-02T11:46:06;101008.06;;;10.19;66.27
45323;BME280;31382;50.200;8.674;2023-02-02T11:51:21;101009.59;;;10.22;66.77
45323;BME280;31382;50.200;8.674;2023-02-02T11:56:24;101014.47;;;10.26;66.47
45323;BME280;31382;50.200;8.674;2023-02-02T12:01:33;100999.22;;;10.27;66.41
45323;BME280;31382;50.200;8.674;2023-02-02T12:06:36;101015.03;;;10.30;66.23
45323;BME280;31382;50.200;8.674;2023-02-02T12:11:47;101006.00;;;10.31;66.33
45323;BME280;31382;50.200;8.674;2023-02-02T12:27:50;101020.19;;;10.49;65.54
45323;BME280;31382;50.200;8.674;2023-02-02T12:50:20;101018.19;;;10.25;66.93
45323;BME280;31382;50.200;8.674;2023-02-02T12:55:46;101026.88;;;10.19;67.00
45323;BME280;31382;50.200;8.674;2023-02-02T13:01:05;101032.53;;;10.16;67.14
45323;BME280;31382;50.200;8.674;2023-02-02T13:06:26;101020.03;;;10.25;66.84
45323;BME280;31382;50.200;8.674;2023-02-02T13:11:48;101029.38;;;10.39;66.77
45323;BME280;31382;50.200;8.674;2023-02-02T13:16:55;101025.44;;;10.51;66.43
45323;BME280;31382;50.200;8.674;2023-02-02T13:21:59;101033.16;;;10.54;66.16
45323;BME280;31382;50.200;8.674;2023-02-02T13:27:04;101032.47;;;10.52;65.89
45323;BME280;31382;50.200;8.674;2023-02-02T13:42:37;101043.53;;;10.75;65.29
45323;BME280;31382;50.200;8.674;2023-02-02T13:47:51;101040.19;;;10.81;65.10
45323;BME280;31382;50.200;8.674;2023-02-02T13:53:17;101029.63;;;10.88;65.17
45323;BME280;31382;50.200;8.674;2023-02-02T14:03:51;101039.94;;;10.93;64.74
45323;BME280;31382;50.200;8.674;2023-02-02T14:08:55;101051.41;;;11.03;64.57
45323;BME280;31382;50.200;8.674;2023-02-02T14:14:07;101058.25;;;10.97;64.00
45323;BME280;31382;50.200;8.674;2023-02-02T14:24:45;101072.31;;;11.17;63.24
45323;BME280;31382;50.200;8.674;2023-02-02T14:34:54;101083.41;;;11.14;62.77
45323;BME280;31382;50.200;8.674;2023-02-02T14:55:25;101113.84;;;11.15;61.78
45323;BME280;31382;50.200;8.674;2023-02-02T15:00:31;101129.50;;;11.19;62.10
45323;BME280;31382;50.200;8.674;2023-02-02T15:05:34;101118.09;;;11.25;62.29
45323;BME280;31382;50.200;8.674;2023-02-02T15:16:09;101131.91;;;11.30;63.18
45323;BME280;31382;50.200;8.674;2023-02-02T15:21:16;101120.22;;;11.48;63.15
45323;BME280;31382;50.200;8.674;2023-02-02T15:26:29;101136.59;;;11.20;63.69
45323;BME280;31382;50.200;8.674;2023-02-02T15:31:36;101144.66;;;11.20;64.25
45323;BME280;31382;50.200;8.674;2023-02-02T15:36:43;101148.63;;;11.08;64.29
45323;BME280;31382;50.200;8.674;2023-02-02T15:41:47;101150.34;;;11.17;64.35
45323;BME280;31382;50.200;8.674;2023-02-02T15:46:49;101154.00;;;11.08;64.51
45323;BME280;31382;50.200;8.674;2023-02-02T15:51:52;101161.56;;;11.04;64.82
45323;BME280;31382;50.200;8.674;2023-02-02T15:56:56;101167.47;;;11.08;64.39
45323;BME280;31382;50.200;8.674;2023-02-02T16:07:16;101177.34;;;11.07;64.33
45323;BME280;31382;50.200;8.674;2023-02-02T16:12:19;101186.19;;;11.18;64.49
45323;BME280;31382;50.200;8.674;2023-02-02T16:17:26;101198.47;;;11.20;63.94
45323;BME280;31382;50.200;8.674;2023-02-02T16:22:28;101199.69;;;11.26;63.63
45323;BME280;31382;50.200;8.674;2023-02-02T16:27:31;101195.56;;;11.40;63.13
45323;BME280;31382;50.200;8.674;2023-02-02T16:32:35;101209.59;;;11.25;63.52
45323;BME280;31382;50.200;8.674;2023-02-02T16:37:37;101217.47;;;11.19;63.11
45323;BME280;31382;50.200;8.674;2023-02-02T16:42:38;101225.16;;;11.14;62.82
45323;BME280;31382;50.200;8.674;2023-02-02T16:47:40;101211.59;;;11.23;62.83
45323;BME280;31382;50.200;8.674;2023-02-02T16:52:51;101216.00;;;11.24;62.63
45323;BME280;31382;50.200;8.674;2023-02-02T16:57:53;101227.94;;;11.22;62.25
45323;BME280;31382;50.200;8.674;2023-02-02T17:03:03;101226.91;;;11.23;62.32
45323;BME280;31382;50.200;8.674;2023-02-02T17:08:06;101234.88;;;11.32;61.82
45323;BME280;31382;50.200;8.674;2023-02-02T17:18:32;101264.00;;;11.37;61.42
45323;BME280;31382;50.200;8.674;2023-02-02T17:23:35;101268.88;;;11.34;61.40
45323;BME280;31382;50.200;8.674;2023-02-02T17:28:39;101264.50;;;11.32;61.66
45323;BME280;31382;50.200;8.674;2023-02-02T17:33:40;101272.06;;;11.37;61.13
45323;BME280;31382;50.200;8.674;2023-02-02T17:38:43;101278.72;;;11.25;61.32
45323;BME280;31382;50.200;8.674;2023-02-02T17:43:44;101282.75;;;11.21;61.76
45323;BME280;31382;50.200;8.674;2023-02-02T17:48:46;101281.56;;;11.23;61.35
45323;BME280;31382;50.200;8.674;2023-02-02T17:53:47;101270.81;;;11.23;61.59
45323;BME280;31382;50.200;8.674;2023-02-02T17:58:49;101286.59;;;11.18;61.49
45323;BME280;31382;50.200;8.674;2023-02-02T18:03:50;101280.53;;;11.16;61.59
45323;BME280;31382;50.200;8.674;2023-02-02T18:08:52;101282.53;;;11.14;61.40
45323;BME280;31382;50.200;8.674;2023-02-02T18:13:53;101280.88;;;11.21;61.07
45323;BME280;31382;50.200;8.674;2023-02-02T18:18:55;101283.66;;;11.11;61.32
45323;BME280;31382;50.200;8.674;2023-02-02T18:23:58;101289.44;;;11.17;60.60
45323;BME280;31382;50.200;8.674;2023-02-02T18:28:59;101293.59;;;11.11;60.88
45323;BME280;31382;50.200;8.674;2023-02-02T18:34:01;101292.75;;;11.10;60.47
45323;BME280;31382;50.200;8.674;2023-02-02T18:39:02;101299.03;;;11.19;60.47
45323;BME280;31382;50.200;8.674;2023-02-02T18:44:03;101305.75;;;11.15;60.16
45323;BME280;31382;50.200;8.674;2023-02-02T18:49:05;101299.72;;;11.21;60.39
45323;BME280;31382;50.200;8.674;2023-02-02T18:54:08;101307.59;;;11.15;60.23
45323;BME280;31382;50.200;8.674;2023-02-02T18:59:10;101305.06;;;11.13;59.89
45323;BME280;31382;50.200;8.674;2023-02-02T19:04:11;101306.56;;;11.16;59.92
45323;BME280;31382;50.200;8.674;2023-02-02T19:09:13;101297.38;;;11.18;59.66
45323;BME280;31382;50.200;8.674;2023-02-02T19:14:18;101291.94;;;11.10;59.68
45323;BME280;31382;50.200;8.674;2023-02-02T19:19:32;101280.47;;;11.08;59.96
45323;BME280;31382;50.200;8.674;2023-02-02T19:24:37;101285.38;;;11.13;59.85
45323;BME280;31382;50.200;8.674;2023-02-02T19:29:39;101291.84;;;11.02;59.80
45323;BME280;31382;50.200;8.674;2023-02-02T19:34:40;101282.72;;;10.95;59.63
45323;BME280;31382;50.200;8.674;2023-02-02T19:39:42;101282.38;;;10.98;59.79
45323;BME280;31382;50.200;8.674;2023-02-02T19:44:44;101285.56;;;10.93;60.05
45323;BME280;31382;50.200;8.674;2023-02-02T19:49:46;101283.34;;;10.88;59.72
45323;BME280;31382;50.200;8.674;2023-02-02T19:54:48;101274.72;;;10.85;59.66
45323;BME280;31382;50.200;8.674;2023-02-02T19:59:50;101268.34;;;10.86;59.58
45323;BME280;31382;50.200;8.674;2023-02-02T20:05:18;101274.03;;;10.83;59.75
45323;BME280;31382;50.200;8.674;2023-02-02T20:10:23;101269.66;;;10.82;60.11
45323;BME280;31382;50.200;8.674;2023-02-02T20:15:34;101280.59;;;10.80;60.03
45323;BME280;31382;50.200;8.674;2023-02-02T20:20:37;101289.34;;;10.82;59.98
45323;BME280;31382;50.200;8.674;2023-02-02T20:25:40;101303.09;;;10.79;60.23
45323;BME280;31382;50.200;8.674;2023-02-02T20:30:44;101317.75;;;10.85;60.17
45323;BME280;31382;50.200;8.674;2023-02-02T20:35:45;101302.47;;;10.85;60.04
45323;BME280;31382;50.200;8.674;2023-02-02T20:40:47;101311.75;;;10.91;60.19
45323;BME280;31382;50.200;8.674;2023-02-02T20:45:48;101328.13;;;10.80;60.23
45323;BME280;31382;50.200;8.674;2023-02-02T20:50:50;101324.13;;;10.84;60.37
45323;BME280;31382;50.200;8.674;2023-02-02T20:55:51;101332.81;;;10.78;60.53
45323;BME280;31382;50.200;8.674;2023-02-02T21:00:58;101332.19;;;10.84;60.58
45323;BME280;31382;50.200;8.674;2023-02-02T21:06:00;101329.97;;;10.79;60.52
45323;BME280;31382;50.200;8.674;2023-02-02T21:11:01;101342.94;;;10.84;60.69
45323;BME280;31382;50.200;8.674;2023-02-02T21:16:03;101338.03;;;10.79;60.91
45323;BME280;31382;50.200;8.674;2023-02-02T21:21:05;101335.75;;;10.84;60.85
45323;BME280;31382;50.200;8.674;2023-02-02T21:26:06;101337.44;;;10.85;60.73
45323;BME280;31382;50.200;8.674;2023-02-02T21:31:08;101334.06;;;10.83;60.87
45323;BME280;31382;50.200;8.674;2023-02-02T21:36:25;101327.97;;;10.81;60.82
45323;BME280;31382;50.200;8.674;2023-02-02T21:41:29;101320.13;;;10.70;61.17
45323;BME280;31382;50.200;8.674;2023-02-02T21:46:35;101309.63;;;10.77;61.12
45323;BME280;31382;50.200;8.674;2023-02-02T21:51:38;101321.75;;;10.81;61.09
45323;BME280;31382;50.200;8.674;2023-02-02T21:56:40;101326.38;;;10.70;61.22
45323;BME280;31382;50.200;8.674;2023-02-02T22:01:42;101329.34;;;10.67;61.18
45323;BME280;31382;50.200;8.674;2023-02-02T22:06:48;101323.28;;;10.65;61.30
45323;BME280;31382;50.200;8.674;2023-02-02T22:11:58;101322.59;;;10.63;61.04
45323;BME280;31382;50.200;8.674;2023-02-02T22:17:15;101328.03;;;10.54;61.87
45323;BME280;31382;50.200;8.674;2023-02-02T22:22:25;101321.69;;;10.55;61.68
45323;BME280;31382;50.200;8.674;2023-02-02T22:27:39;101328.66;;;10.47;61.80
45323;BME280;31382;50.200;8.674;2023-02-02T22:32:41;101329.34;;;10.49;61.96
45323;BME280;31382;50.200;8.674;2023-02-02T22:37:42;101356.22;;;10.49;61.76
45323;BME280;31382;50.200;8.674;2023-02-02T22:42:44;101345.59;;;10.48;62.06
45323;BME280;31382;50.200;8.674;2023-02-02T22:47:45;101333.19;;;10.47;62.39
45323;BME280;31382;50.200;8.674;2023-02-02T22:52:47;101330.63;;;10.45;62.30
45323;BME280;31382;50.200;8.674;2023-02-02T22:57:49;101336.63;;;10.39;62.51
45323;BME280;31382;50.200;8.674;2023-02-02T23:02:51;101338.28;;;10.40;62.72
45323;BME280;31382;50.200;8.674;2023-02-02T23:07:53;101353.44;;;10.41;62.60
45323;BME280;31382;50.200;8.674;2023-02-02T23:12:55;101357.09;;;10.40;63.01
45323;BME280;31382;50.200;8.674;2023-02-02T23:17:58;101348.50;;;10.37;63.16
45323;BME280;31382;50.200;8.674;2023-02-02T23:23:00;101334.78;;;10.40;63.20
45323;BME280;31382;50.200;8.674;2023-02-02T23:28:01;101322.50;;;10.27;63.47
45323;BME280;31382;50.200;8.674;2023-02-02T23:33:03;101342.63;;;10.23;63.56
45323;BME280;31382;50.200;8.674;2023-02-02T23:38:04;101340.06;;;10.22;63.53
45323;BME280;31382;50.200;8.674;2023-02-02T23:43:06;101350.56;;;10.15;63.72
45323;BME280;31382;50.200;8.674;2023-02-02T23:48:08;101374.91;;;10.13;64.10
45323;BME280;31382;50.200;8.674;2023-02-02T23:53:10;101373.50;;;10.09;64.00
45323;BME280;31382;50.200;8.674;2023-02-02T23:58:11;101391.91;;;10.04;64.23
